OMAA/AUH METAR and TAF weather

Enter ICAO airport designator
Station Type Date Time Source
OMAA METAR 2022/01/26 08:00 UTC NOAA

OMAA 260800Z 01005KT 300V060 CAVOK 24/16 Q1017 BECMG 31010KT


Station Type Date Time Source
OMAA Decoded METAR 2022/01/26 08:00 UTC NOAA

Abu Dhabi International Airport, United Arab Emirates (OMAA) 24-26N 054-39E 27M
Jan 26, 2022 - 03:00 AM EST / 2022.01.26 0800 UTC
Wind: from the N (010 degrees) at 6 MPH (5 KT) (direction variable):0
Visibility: greater than 7 mile(s):0
Temperature: 75 F (24 C)
Dew Point: 60 F (16 C)
Relative Humidity: 60%
Pressure (altimeter): 30.03 in. Hg (1017 hPa)
ob: OMAA 260800Z 01005KT 300V060 CAVOK 24/16 Q1017 BECMG 31010KT
cycle: 8

Station Type Date Time Source
OMAA TAF 2022/01/26 06:03 UTC NOAA

TAF OMAA 260500Z 2606/2712 16005KT 8000 NSC
BECMG 2607/2609 32010KT
BECMG 2618/2620 06006KT
BECMG 2702/2704 14010KT PROB30
TEMPO 2702/2705 1200 BCFG BKN003

Example: see airport list